Time;durP1;ratioP1;P1;durP2;ratioP2;P2;SDS_P1;SDS_P2;PMS_P1;PMS_P2;Temp;Humidity;BMP_temperature;BMP_pressure;BME280_temperature;BME280_humidity;BME280_pressure;Samples;Min_cycle;Max_cycle;Signal;HPM_P1;HPM_P2
2021/03/17 00:00:42;;;;;;;3.88;3.47;;;5.50;99.90;;;5.29;100.00;102582.38;4996585;28;20041;-66
2021/03/17 00:03:08;;;;;;;3.40;3.08;;;5.50;99.90;;;5.30;100.00;102593.06;5011619;28;20037;-61
2021/03/17 00:05:40;;;;;;;3.40;2.78;;;5.50;99.90;;;5.34;100.00;102589.13;5013006;28;20033;-64
2021/03/17 00:08:06;;;;;;;3.72;3.03;;;5.50;99.90;;;5.30;100.00;102603.88;5027755;28;20061;-63
2021/03/17 00:10:45;;;;;;;3.03;2.53;;;5.50;99.90;;;5.19;100.00;102611.97;5012653;28;20088;-63
2021/03/17 00:13:11;;;;;;;2.47;2.13;;;5.50;99.90;;;5.05;100.00;102609.50;5045027;28;20029;-63
2021/03/17 00:15:41;;;;;;;2.55;2.30;;;5.40;99.90;;;5.06;100.00;102616.63;4995904;28;20386;-62
2021/03/17 00:18:12;;;;;;;3.20;2.30;;;5.40;99.90;;;5.01;100.00;102614.25;5042571;28;20039;-62
2021/03/17 00:20:38;;;;;;;2.00;1.77;;;5.30;99.90;;;5.21;100.00;102617.22;5025929;28;20125;-63
2021/03/17 00:23:04;;;;;;;2.65;1.90;;;5.30;99.90;;;4.99;100.00;102607.25;5008399;28;20449;-62
2021/03/17 00:25:34;;;;;;;2.10;1.70;;;5.30;99.90;;;5.00;100.00;102608.97;5030082;28;20026;-64
2021/03/17 00:28:01;;;;;;;2.17;1.70;;;5.20;99.90;;;5.00;100.00;102601.75;5012083;28;20361;-65
2021/03/17 00:30:33;;;;;;;2.05;1.35;;;5.20;99.90;;;4.95;100.00;102606.66;5012808;28;20096;-65
2021/03/17 00:33:00;;;;;;;1.65;1.52;;;5.20;99.90;;;4.99;100.00;102601.84;5012124;28;20128;-64
2021/03/17 00:35:30;;;;;;;3.20;1.30;;;5.20;99.90;;;4.98;100.00;102608.22;5028021;28;20045;-63
2021/03/17 00:37:56;;;;;;;2.15;1.42;;;5.20;99.90;;;4.91;100.00;102607.00;5011746;28;20124;-62
2021/03/17 00:40:23;;;;;;;1.80;1.38;;;5.20;99.90;;;4.94;100.00;102617.56;4996643;28;20492;-64
2021/03/17 00:42:49;;;;;;;1.55;1.40;;;5.20;99.90;;;5.04;100.00;102613.16;5007367;28;20092;-64
2021/03/17 00:45:15;;;;;;;1.42;1.33;;;5.30;99.90;;;4.94;100.00;102622.97;5011486;28;20487;-62
2021/03/17 00:47:42;;;;;;;1.48;1.30;;;5.20;99.90;;;5.03;100.00;102622.25;5028589;28;20049;-67
2021/03/17 00:50:11;;;;;;;1.55;1.30;;;5.20;99.90;;;5.12;100.00;102624.22;5028174;28;20075;-67
2021/03/17 00:52:38;;;;;;;1.35;1.25;;;5.20;99.90;;;5.27;99.84;102623.00;5012734;28;20491;-62
2021/03/17 00:55:05;;;;;;;2.17;1.10;;;5.30;99.90;;;5.23;100.00;102616.13;5012596;28;20488;-63
2021/03/17 00:57:31;;;;;;;4.00;1.75;;;5.30;99.90;;;5.27;100.00;102609.50;4993727;28;20440;-62
2021/03/17 00:59:57;;;;;;;4.05;1.52;;;5.40;99.90;;;5.22;100.00;102606.31;5028055;28;20458;-63
2021/03/17 01:02:23;;;;;;;2.90;1.60;;;5.50;99.90;;;5.24;100.00;102615.13;5028401;28;20656;-64
2021/03/17 01:04:49;;;;;;;2.92;1.38;;;5.50;99.90;;;5.22;100.00;102617.09;4994982;28;20589;-61
2021/03/17 01:07:17;;;;;;;5.50;2.25;;;5.50;99.90;;;5.30;100.00;102620.06;5028442;28;20060;-63
2021/03/17 01:09:44;;;;;;;3.70;1.73;;;5.50;99.90;;;5.40;99.82;102626.44;5028265;28;20125;-62
2021/03/17 01:12:11;;;;;;;6.50;2.35;;;5.60;99.90;;;5.63;99.04;102626.44;5031163;28;20088;-63
2021/03/17 01:14:38;;;;;;;1.92;1.40;;;5.60;99.90;;;5.51;99.52;102622.88;5027398;28;20044;-62
2021/03/17 01:17:05;;;;;;;4.72;1.90;;;5.60;99.90;;;5.57;99.85;102635.00;5028278;28;20439;-66
2021/03/17 01:19:32;;;;;;;4.60;2.40;;;5.70;99.90;;;5.54;100.00;102637.94;5024282;28;20052;-64
2021/03/17 01:21:58;;;;;;;8.15;2.88;;;5.80;99.90;;;5.66;99.62;102636.97;5032787;28;20033;-61
2021/03/17 01:24:25;;;;;;;4.07;2.28;;;5.80;99.90;;;5.69;99.41;102636.72;5033108;28;20373;-64
2021/03/17 01:26:50;;;;;;;4.07;1.75;;;5.90;99.90;;;5.79;99.30;102632.28;5014214;28;20132;-60
2021/03/17 01:29:16;;;;;;;7.00;1.65;;;6.00;99.90;;;5.76;99.09;102637.94;5014602;28;20042;-63
2021/03/17 01:31:42;;;;;;;1.50;1.40;;;6.00;99.90;;;5.78;99.31;102630.56;5033213;28;20117;-67
2021/03/17 01:34:08;;;;;;;6.30;1.15;;;6.00;99.90;;;5.81;99.02;102633.88;5015194;28;20143;-63
2021/03/17 01:36:34;;;;;;;1.85;0.77;;;6.10;99.90;;;5.89;98.60;102633.28;5030543;28;20045;-62
2021/03/17 01:39:00;;;;;;;0.50;0.50;;;6.10;99.90;;;5.92;98.76;102634.88;5031611;28;20045;-63
2021/03/17 01:41:26;;;;;;;2.50;0.30;;;6.10;99.90;;;5.79;98.22;102632.28;4998527;28;20041;-64
2021/03/17 01:43:52;;;;;;;2.10;0.77;;;6.00;99.90;;;5.91;97.95;102630.47;5029287;28;20040;-63
2021/03/17 01:46:18;;;;;;;0.60;0.30;;;6.00;99.90;;;5.79;97.98;102622.34;5014233;28;20492;-66
2021/03/17 01:48:44;;;;;;;3.15;0.50;;;6.00;99.90;;;5.77;98.67;102618.91;5030511;28;20411;-65
2021/03/17 01:51:10;;;;;;;1.08;0.30;;;6.00;99.90;;;5.80;98.40;102610.56;5012241;28;20053;-62
2021/03/17 01:53:39;;;;;;;1.33;0.32;;;6.00;99.90;;;5.77;98.50;102607.22;5014991;28;20037;-62
2021/03/17 01:56:06;;;;;;;0.30;0.30;;;6.10;99.90;;;5.65;99.28;102603.69;5030709;28;20042;-61
2021/03/17 01:58:35;;;;;;;1.52;0.40;;;6.10;99.90;;;5.89;99.53;102600.84;5014773;28;20037;-61
2021/03/17 02:01:02;;;;;;;2.22;0.43;;;6.10;99.90;;;5.84;99.56;102605.75;5030856;28;20104;-65
2021/03/17 02:03:29;;;;;;;0.28;0.28;;;6.00;99.90;;;5.85;99.74;102593.97;5031018;28;20041;-60
2021/03/17 02:05:55;;;;;;;1.40;0.80;;;6.10;99.90;;;5.84;100.00;102592.25;4998368;28;20352;-64
2021/03/17 02:08:35;;;;;;;1.52;0.30;;;6.10;99.90;;;5.84;100.00;102594.94;5014581;28;20046;-63
2021/03/17 02:11:02;;;;;;;1.63;0.50;;;6.10;99.90;;;5.91;100.00;102593.47;5027738;28;20172;-66
2021/03/17 02:13:59;;;;;;;0.65;0.50;;;6.20;99.90;;;6.02;99.95;102595.28;5013057;28;20046;-63
2021/03/17 02:16:38;;;;;;;1.70;0.50;;;6.20;99.90;;;6.07;99.87;102593.94;5029462;28;20116;-65
2021/03/17 02:19:13;;;;;;;1.98;0.30;;;6.30;99.90;;;6.09;99.95;102600.09;5028677;28;20033;-63
2021/03/17 02:22:06;;;;;;;4.45;0.80;;;6.40;99.90;;;6.14;99.82;102597.84;5028643;28;20103;-63
2021/03/17 02:24:40;;;;;;;3.53;0.93;;;6.40;99.90;;;6.09;100.00;102597.38;5029531;28;20067;-62
2021/03/17 02:27:59;;;;;;;2.00;0.40;;;6.40;99.90;;;6.10;99.99;102593.66;5032169;28;20030;-62
2021/03/17 02:31:06;;;;;;;1.88;0.45;;;6.40;99.90;;;6.10;100.00;102592.81;5029188;28;20069;-62
2021/03/17 02:33:53;;;;;;;0.55;0.30;;;6.40;99.90;;;6.11;100.00;102595.38;5026668;28;20028;-63
2021/03/17 02:36:27;;;;;;;0.40;0.40;;;6.30;99.90;;;6.04;100.00;102583.38;5030785;28;20488;-62
2021/03/17 02:39:09;;;;;;;2.05;0.80;;;6.30;99.90;;;6.10;100.00;102588.25;5012673;28;20120;-63
2021/03/17 02:42:04;;;;;;;1.38;0.50;;;6.40;99.90;;;6.07;100.00;102580.44;5015749;28;20052;-65
2021/03/17 02:44:30;;;;;;;2.53;0.43;;;6.30;99.90;;;6.17;100.00;102575.97;5046076;28;20037;-63
2021/03/17 02:47:00;;;;;;;2.20;0.50;;;6.40;99.90;;;6.09;100.00;102586.56;5012912;28;20397;-64
2021/03/17 02:49:33;;;;;;;0.30;0.30;;;6.30;99.90;;;6.06;100.00;102589.50;5021007;28;20042;-65
2021/03/17 02:52:00;;;;;;;3.17;0.60;;;6.30;99.90;;;6.10;100.00;102585.56;5026157;28;20028;-67
2021/03/17 02:54:27;;;;;;;1.17;0.50;;;6.30;99.90;;;6.25;100.00;102586.13;5014389;28;20033;-66
2021/03/17 02:57:05;;;;;;;0.65;0.38;;;6.30;99.90;;;6.33;100.00;102580.03;5013460;28;20128;-69
2021/03/17 02:59:32;;;;;;;2.53;0.70;;;6.40;99.90;;;6.26;100.00;102582.44;5026810;28;20060;-65
2021/03/17 03:02:00;;;;;;;2.53;0.60;;;6.30;99.90;;;6.26;100.00;102581.56;5013185;28;20033;-66
2021/03/17 03:04:27;;;;;;;5.35;0.45;;;6.40;99.90;;;6.18;100.00;102585.78;5027991;28;20033;-65
2021/03/17 03:06:56;;;;;;;3.20;0.70;;;6.30;99.90;;;6.12;100.00;102583.59;5013137;28;20128;-64
2021/03/17 03:09:26;;;;;;;1.35;0.40;;;6.30;99.90;;;6.18;100.00;102580.38;5013291;28;20041;-67
2021/03/17 03:11:55;;;;;;;1.40;0.43;;;6.40;99.90;;;6.22;100.00;102588.22;5029913;28;20041;-62
2021/03/17 03:14:22;;;;;;;1.25;0.32;;;6.40;99.90;;;6.15;100.00;102586.03;5029799;28;20502;-65
2021/03/17 03:16:54;;;;;;;0.60;0.35;;;6.40;99.90;;;6.09;100.00;102581.16;5013417;28;20034;-62
2021/03/17 03:19:25;;;;;;;0.40;0.40;;;6.40;99.90;;;6.05;100.00;102590.50;5025162;28;20053;-61
2021/03/17 03:21:53;;;;;;;2.85;0.90;;;6.30;99.90;;;5.96;100.00;102585.00;5011347;28;20038;-62
2021/03/17 03:24:19;;;;;;;3.25;1.20;;;6.30;99.90;;;5.86;100.00;102584.88;5044765;28;20496;-61
2021/03/17 03:26:52;;;;;;;2.88;1.08;;;6.20;99.90;;;5.86;100.00;102582.19;5013715;28;20107;-63
2021/03/17 03:29:18;;;;;;;8.98;1.30;;;6.20;99.90;;;5.96;100.00;102579.59;5029637;28;20087;-61
2021/03/17 03:31:47;;;;;;;3.58;1.38;;;6.20;99.90;;;5.87;100.00;102581.16;5029490;28;20038;-65
2021/03/17 03:34:15;;;;;;;6.43;1.40;;;6.20;99.90;;;5.89;100.00;102576.53;5029616;28;20173;-61
2021/03/17 03:36:42;;;;;;;2.60;0.88;;;6.20;99.90;;;6.02;100.00;102577.22;5011962;28;20041;-61
2021/03/17 03:39:08;;;;;;;3.65;1.33;;;6.20;99.90;;;5.93;100.00;102575.31;5012737;28;20510;-61
2021/03/17 03:41:34;;;;;;;1.08;0.60;;;6.20;99.90;;;6.15;99.08;102591.44;4996110;28;20042;-62
2021/03/17 03:43:59;;;;;;;1.90;0.95;;;6.20;99.90;;;5.99;98.50;102585.59;5028918;28;20489;-66
2021/03/17 03:46:25;;;;;;;1.65;0.88;;;6.30;99.90;;;6.04;98.98;102588.78;5012773;28;20131;-62
2021/03/17 03:48:51;;;;;;;1.25;0.50;;;6.20;99.90;;;5.87;98.78;102581.16;5028352;28;20388;-61
2021/03/17 03:51:20;;;;;;;1.10;0.50;;;6.20;99.90;;;5.97;98.47;102590.28;5012154;28;20073;-62
2021/03/17 03:54:28;;;;;;;0.60;0.47;;;6.10;99.90;;;5.83;98.27;102602.19;5043593;28;20079;-60
2021/03/17 03:57:22;;;;;;;4.53;0.60;;;6.10;99.90;;;6.04;97.81;102605.00;5013974;28;20034;-66
2021/03/17 03:59:53;;;;;;;3.38;0.60;;;6.10;99.90;;;6.04;97.52;102596.88;5028834;28;20033;-61
2021/03/17 04:02:26;;;;;;;4.38;1.15;;;6.10;99.90;;;5.93;97.86;102606.88;5028797;28;20049;-61
2021/03/17 04:04:55;;;;;;;3.60;0.65;;;6.10;99.90;;;5.92;97.73;102614.13;5028962;28;20476;-62
2021/03/17 04:07:23;;;;;;;2.15;0.85;;;6.10;99.90;;;6.04;98.28;102605.00;5028535;28;20088;-61
2021/03/17 04:09:53;;;;;;;1.85;0.70;;;6.20;99.90;;;5.79;98.17;102613.38;5010913;28;20416;-62
2021/03/17 04:12:22;;;;;;;3.78;1.17;;;6.10;99.90;;;5.92;97.99;102616.81;5012197;28;20041;-63
2021/03/17 04:14:58;;;;;;;1.33;0.45;;;6.10;99.90;;;5.88;97.58;102623.47;5028821;28;20099;-60
2021/03/17 04:18:00;;;;;;;2.60;0.60;;;6.20;99.90;;;5.87;96.42;102616.28;5012231;28;20091;-61
2021/03/17 04:20:35;;;;;;;3.17;0.52;;;6.10;99.90;;;5.76;96.18;102622.59;5028770;28;20041;-61
2021/03/17 04:23:04;;;;;;;4.75;0.50;;;6.10;99.90;;;5.73;95.49;102622.00;5044134;28;20030;-63
2021/03/17 04:25:33;;;;;;;1.23;0.50;;;6.00;99.90;;;5.84;95.21;102617.44;5028977;28;20503;-61
2021/03/17 04:28:00;;;;;;;2.90;0.50;;;6.00;99.90;;;5.86;94.42;102617.31;5014156;28;20033;-61
2021/03/17 04:30:26;;;;;;;0.68;0.28;;;6.10;99.90;;;5.85;93.87;102626.41;4995929;28;20132;-63
2021/03/17 04:32:53;;;;;;;0.70;0.40;;;6.10;99.90;;;5.81;94.65;102622.22;5011733;28;20563;-64
2021/03/17 04:35:20;;;;;;;3.80;0.43;;;6.10;99.90;;;5.75;95.40;102614.63;5012389;28;20045;-63
2021/03/17 04:37:50;;;;;;;2.63;0.30;;;6.00;99.90;;;5.82;95.68;102627.50;5011820;28;20072;-63
2021/03/17 04:40:17;;;;;;;2.38;0.60;;;6.00;99.90;;;5.68;95.92;102635.00;5026523;28;20041;-62
2021/03/17 04:42:44;;;;;;;3.78;0.50;;;6.00;99.90;;;5.60;95.96;102627.53;5026980;28;20484;-62
2021/03/17 04:45:13;;;;;;;2.13;0.43;;;5.90;99.90;;;5.67;96.77;102634.16;5028858;28;20025;-61
2021/03/17 04:47:43;;;;;;;0.20;0.20;;;5.90;99.90;;;5.83;96.52;102645.44;5013505;28;20025;-60
2021/03/17 04:50:17;;;;;;;3.55;0.57;;;6.00;99.90;;;5.77;95.66;102639.66;5026400;28;20038;-61
2021/03/17 04:52:44;;;;;;;4.13;0.55;;;6.00;99.90;;;5.79;95.57;102645.81;5028402;28;20476;-64
2021/03/17 04:55:14;;;;;;;1.02;0.32;;;6.00;99.90;;;5.70;95.48;102627.63;5011382;28;20049;-62
2021/03/17 04:57:42;;;;;;;2.40;0.35;;;5.90;99.90;;;5.72;94.33;102637.34;4998856;28;20565;-60
2021/03/17 05:00:20;;;;;;;0.30;0.25;;;5.90;99.90;;;5.71;94.31;102632.94;5032147;28;20488;-67
2021/03/17 05:03:00;;;;;;;1.17;0.32;;;5.90;99.90;;;5.83;94.34;102637.31;5011867;28;20044;-62
2021/03/17 05:05:31;;;;;;;1.45;0.40;;;5.90;99.90;;;5.66;93.02;102647.78;5031299;28;20108;-65
2021/03/17 05:07:58;;;;;;;0.75;0.25;;;6.00;99.90;;;5.87;92.16;102635.22;5032400;28;20511;-60
2021/03/17 05:10:27;;;;;;;0.20;0.20;;;5.90;99.90;;;5.87;92.32;102643.31;5032653;28;20510;-64
2021/03/17 05:12:53;;;;;;;2.72;0.28;;;5.90;99.90;;;5.77;91.60;102639.66;5032331;28;20041;-62
2021/03/17 05:15:22;;;;;;;1.58;0.50;;;5.90;99.90;;;5.80;91.73;102639.41;5016232;28;20068;-66
2021/03/17 05:17:50;;;;;;;0.65;0.25;;;5.90;99.90;;;5.71;91.69;102632.06;5015415;28;20060;-65
2021/03/17 05:20:23;;;;;;;2.13;0.22;;;5.90;99.90;;;5.68;92.23;102645.81;5031598;28;20052;-64
2021/03/17 05:22:50;;;;;;;0.93;0.32;;;5.90;99.90;;;5.78;92.96;102641.38;5032621;28;20041;-65
2021/03/17 05:25:21;;;;;;;7.63;0.80;;;5.90;99.90;;;5.68;93.28;102643.09;4998532;28;20143;-67
2021/03/17 05:27:52;;;;;;;1.35;0.47;;;5.90;99.90;;;5.56;94.18;102649.50;5032861;28;20463;-65
2021/03/17 05:30:20;;;;;;;1.42;0.50;;;5.90;99.90;;;5.67;94.72;102638.69;5032420;28;20030;-64
2021/03/17 05:32:48;;;;;;;1.35;0.32;;;5.90;99.90;;;5.68;94.25;102648.50;4983954;28;20037;-62
2021/03/17 05:35:15;;;;;;;0.95;0.60;;;5.80;99.90;;;5.62;94.26;102646.31;5015594;28;20038;-65
2021/03/17 05:37:41;;;;;;;0.10;0.10;;;5.80;99.90;;;5.54;93.30;102654.16;5024607;28;20045;-66
2021/03/17 05:40:11;;;;;;;0.30;0.30;;;5.80;99.90;;;5.43;93.56;102647.78;5014192;28;20029;-62
2021/03/17 05:42:41;;;;;;;0.50;0.30;;;5.70;99.90;;;5.59;93.59;102630.34;5016038;28;20033;-62
2021/03/17 05:45:17;;;;;;;1.92;0.93;;;5.70;99.90;;;5.43;93.64;102636.97;5014821;28;20421;-62
2021/03/17 05:47:50;;;;;;;1.25;0.40;;;5.70;99.90;;;5.55;93.83;102656.75;5029294;28;20060;-62
2021/03/17 05:50:21;;;;;;;4.05;0.30;;;5.70;99.90;;;5.64;93.65;102653.31;5029494;28;20352;-64
2021/03/17 05:52:47;;;;;;;0.75;0.30;;;5.80;99.90;;;5.39;94.17;102662.53;5031958;28;20091;-65
2021/03/17 05:55:18;;;;;;;1.75;0.25;;;5.80;99.90;;;5.45;94.96;102659.31;5014254;28;20044;-63
2021/03/17 05:57:45;;;;;;;0.50;0.25;;;5.80;99.90;;;5.45;95.62;102671.97;4999555;28;20496;-61
2021/03/17 06:00:21;;;;;;;0.82;0.55;;;5.70;99.90;;;5.32;96.78;102668.50;5012484;28;20041;-62
2021/03/17 06:02:48;;;;;;;2.17;0.57;;;5.60;99.90;;;5.25;97.24;102678.09;5032301;28;20029;-62
2021/03/17 06:05:17;;;;;;;1.67;1.10;;;5.60;99.90;;;5.10;98.21;102683.69;5030430;28;20103;-64
2021/03/17 06:07:58;;;;;;;1.17;0.60;;;5.40;99.90;;;5.23;98.33;102680.91;5031886;28;20511;-64
2021/03/17 06:10:28;;;;;;;1.80;0.68;;;5.40;99.90;;;5.37;98.81;102683.38;5046483;28;20095;-61
2021/03/17 06:13:07;;;;;;;0.65;0.50;;;5.50;99.90;;;5.36;97.54;102680.81;5015659;28;20042;-62
2021/03/17 06:15:35;;;;;;;0.40;0.40;;;5.60;99.90;;;5.45;97.37;102680.06;5030066;28;20033;-63
2021/03/17 06:18:23;;;;;;;0.43;0.43;;;5.60;99.90;;;5.46;97.05;102669.16;5030812;28;20069;-67
2021/03/17 06:20:49;;;;;;;1.85;0.60;;;5.60;99.90;;;5.28;97.44;102672.47;5010907;28;20038;-64
2021/03/17 06:23:15;;;;;;;1.02;0.68;;;5.60;99.90;;;5.18;97.98;102660.66;5029989;28;20037;-65
2021/03/17 06:25:44;;;;;;;0.47;0.40;;;5.50;99.90;;;5.12;97.38;102667.41;5031355;28;20035;-63
2021/03/17 06:28:12;;;;;;;0.45;0.35;;;5.50;99.90;;;5.02;97.44;102679.88;5032346;28;20124;-65
2021/03/17 06:30:38;;;;;;;0.85;0.50;;;5.40;99.90;;;5.06;97.29;102682.25;5031279;28;20618;-63
2021/03/17 06:33:05;;;;;;;0.55;0.38;;;5.40;99.90;;;4.95;96.83;102678.66;5028971;28;20131;-62
2021/03/17 06:35:31;;;;;;;1.67;0.50;;;5.30;99.90;;;5.06;96.22;102692.19;5029012;28;20045;-62
2021/03/17 06:37:57;;;;;;;0.55;0.50;;;5.30;99.90;;;5.08;94.58;102691.06;5033146;28;20037;-62
2021/03/17 06:40:37;;;;;;;1.40;0.40;;;5.30;99.90;;;5.21;94.25;102695.50;4996950;28;20042;-64
2021/03/17 06:43:11;;;;;;;1.67;0.80;;;5.40;99.90;;;5.34;93.71;102686.31;5012328;28;20085;-64
2021/03/17 06:45:49;;;;;;;0.85;0.50;;;5.40;99.90;;;5.13;93.70;102698.81;5045118;28;21458;-62
2021/03/17 06:48:28;;;;;;;0.45;0.45;;;5.40;99.90;;;5.06;93.76;102713.78;5019696;28;20041;-64
2021/03/17 06:51:18;;;;;;;5.20;0.70;;;5.40;99.90;;;5.18;93.90;102712.81;5024980;28;20041;-62
2021/03/17 06:53:45;;;;;;;1.00;0.60;;;5.40;99.90;;;5.05;93.94;102710.22;5025576;28;20046;-68
2021/03/17 06:56:19;;;;;;;1.05;0.70;;;5.40;99.90;;;5.16;93.83;102705.81;5026772;28;20029;-63
2021/03/17 06:58:51;;;;;;;1.10;0.73;;;5.40;99.90;;;5.00;94.71;102709.69;5021545;28;20042;-66
2021/03/17 07:01:26;;;;;;;2.38;1.15;;;5.40;99.90;;;4.91;95.11;102717.63;5018596;28;20036;-64
2021/03/17 07:04:24;;;;;;;1.83;1.00;;;5.30;99.90;;;5.15;95.15;102723.84;5022832;28;20037;-68
2021/03/17 07:07:00;;;;;;;3.60;1.08;;;5.30;99.90;;;5.19;93.93;102716.38;5029633;28;20543;-70
2021/03/17 07:09:30;;;;;;;4.57;1.58;;;5.40;99.90;;;5.24;94.05;102727.66;5003677;28;20025;-64
2021/03/17 07:12:07;;;;;;;2.08;1.02;;;5.40;99.90;;;5.13;95.20;102731.19;5004973;28;20378;-69
2021/03/17 07:14:44;;;;;;;3.15;0.82;;;5.40;99.90;;;5.03;96.71;102735.59;5025040;28;20037;-66
2021/03/17 07:17:30;;;;;;;2.38;0.80;;;5.40;99.90;;;4.89;99.07;102743.88;5023504;28;20391;-64
2021/03/17 07:19:57;;;;;;;3.30;1.00;;;5.30;99.90;;;4.98;100.00;102746.72;5020106;28;20076;-70
2021/03/17 07:22:24;;;;;;;1.88;0.95;;;5.30;99.90;;;5.02;99.82;102750.06;5023497;28;20506;-67
2021/03/17 07:25:08;;;;;;;4.45;1.75;;;5.30;99.90;;;5.04;99.71;102738.16;5028929;28;20492;-70
2021/03/17 07:27:35;;;;;;;1.95;1.00;;;5.30;99.90;;;5.02;97.96;102733.88;5024778;28;20485;-69
2021/03/17 07:30:04;;;;;;;3.05;0.93;;;5.30;99.90;;;5.36;97.47;102738.38;5012517;28;20141;-68
2021/03/17 07:32:54;;;;;;;2.28;0.60;;;5.40;99.90;;;5.39;96.34;102743.53;5025317;28;20047;-64
2021/03/17 07:35:24;;;;;;;2.30;1.02;;;5.60;99.90;;;5.52;95.08;102747.97;5027780;28;20045;-68
2021/03/17 07:38:09;;;;;;;0.93;0.40;;;5.60;99.90;;;5.64;93.60;102739.78;5024944;28;20045;-64
2021/03/17 07:40:45;;;;;;;7.68;0.90;;;5.70;99.90;;;5.76;92.65;102738.78;5026817;28;20442;-65
2021/03/17 07:43:13;;;;;;;1.40;0.50;;;5.90;99.90;;;5.96;91.44;102753.44;5009291;28;20033;-68
2021/03/17 07:45:40;;;;;;;1.30;0.47;;;6.00;99.90;;;5.84;90.66;102757.09;5013552;28;20064;-68
2021/03/17 07:48:12;;;;;;;1.80;0.70;;;6.00;99.90;;;6.10;90.82;102752.31;5012502;28;20041;-69
2021/03/17 07:50:42;;;;;;;2.03;0.40;;;6.10;99.90;;;6.10;89.45;102749.59;5012207;28;20040;-70
2021/03/17 07:53:25;;;;;;;9.40;0.85;;;6.20;99.90;;;6.05;89.56;102752.69;5012890;28;20065;-64
2021/03/17 07:55:57;;;;;;;4.00;0.65;;;6.20;99.90;;;6.09;89.60;102758.72;5024656;28;20046;-70
2021/03/17 07:58:23;;;;;;;1.90;0.70;;;6.20;99.90;;;6.22;89.18;102763.97;5030216;28;20052;-66
2021/03/17 08:00:49;;;;;;;3.50;0.73;;;6.30;99.90;;;6.17;88.97;102765.22;5036943;28;20707;-70
2021/03/17 08:03:16;;;;;;;2.20;0.55;;;6.30;99.90;;;5.99;90.21;102772.09;5027287;28;20030;-69
2021/03/17 08:05:42;;;;;;;2.20;0.77;;;6.20;99.90;;;5.86;90.30;102773.19;5028624;28;20423;-70
2021/03/17 08:08:09;;;;;;;5.63;1.55;;;6.20;99.90;;;5.75;89.78;102765.94;5027099;28;20480;-67
2021/03/17 08:10:42;;;;;;;3.47;0.40;;;6.10;99.90;;;6.21;87.89;102783.91;5013417;28;20395;-68
2021/03/17 08:13:09;;;;;;;1.20;0.60;;;6.20;99.90;;;6.03;87.67;102770.88;5026533;28;20037;-67
2021/03/17 08:15:37;;;;;;;6.53;1.17;;;6.20;99.90;;;6.37;88.06;102768.13;5045250;28;20073;-67
2021/03/17 08:18:32;;;;;;;1.63;0.50;;;6.40;99.90;;;6.68;85.18;102772.72;5011377;28;20037;-69
2021/03/17 08:20:59;;;;;;;2.58;0.65;;;6.70;99.90;;;6.60;85.37;102772.50;5028223;28;20049;-64
2021/03/17 08:23:50;;;;;;;2.05;0.47;;;6.80;99.90;;;6.58;85.93;102766.34;5013225;28;20041;-62
2021/03/17 08:26:22;;;;;;;9.90;0.95;;;6.90;99.90;;;6.57;85.13;102779.03;5026195;28;20037;-68
2021/03/17 08:28:53;;;;;;;4.45;0.70;;;6.90;99.90;;;6.43;85.15;102771.19;5019145;28;20064;-66
2021/03/17 08:31:37;;;;;;;1.45;0.43;;;6.80;99.90;;;6.86;84.77;102765.78;5032743;28;20025;-66
2021/03/17 08:34:18;;;;;;;4.90;0.85;;;6.90;99.90;;;7.20;82.24;102763.78;5031413;28;20531;-66
2021/03/17 08:36:49;;;;;;;6.40;1.10;;;7.10;99.90;;;7.50;81.63;102765.69;5032516;28;20049;-65
2021/03/17 08:39:40;;;;;;;3.22;0.85;;;7.40;99.90;;;7.94;78.91;102759.06;5033840;28;20040;-64
2021/03/17 08:42:27;;;;;;;1.00;0.57;;;7.70;99.90;;;7.88;79.03;102759.63;5033777;28;20048;-66
2021/03/17 08:44:56;;;;;;;1.88;0.90;;;7.90;99.90;;;7.46;79.87;102772.38;5002474;28;20026;-63
2021/03/17 08:47:31;;;;;;;2.75;0.50;;;7.80;99.90;;;7.03;82.26;102768.91;5034336;28;20038;-63
2021/03/17 08:50:17;;;;;;;1.88;0.30;;;7.60;99.90;;;6.67;83.86;102768.28;5014967;28;20109;-67
2021/03/17 08:52:52;;;;;;;2.72;0.57;;;7.20;99.90;;;7.00;84.11;102766.47;5044527;28;20035;-63
2021/03/17 08:55:33;;;;;;;3.42;0.65;;;7.10;99.90;;;6.93;84.04;102771.53;5033184;28;20037;-63
2021/03/17 08:58:04;;;;;;;3.80;0.90;;;7.20;99.90;;;7.16;84.34;102773.16;5037405;28;20108;-68
2021/03/17 09:01:02;;;;;;;2.95;0.45;;;7.20;99.90;;;6.97;85.38;102767.59;5029671;28;20073;-65
2021/03/17 09:03:31;;;;;;;2.72;0.60;;;7.20;99.90;;;6.57;88.67;102772.75;5016798;28;20049;-70
2021/03/17 09:06:15;;;;;;;4.47;0.52;;;7.00;99.90;;;6.43;90.85;102778.47;5029143;28;20048;-66
2021/03/17 09:08:56;;;;;;;0.88;0.52;;;6.80;99.90;;;6.26;91.72;102784.38;5029417;28;20361;-68
2021/03/17 09:11:31;;;;;;;5.03;0.80;;;6.60;99.90;;;6.22;93.56;102791.00;5026185;28;20052;-62
2021/03/17 09:14:06;;;;;;;3.15;0.50;;;6.50;99.90;;;6.16;94.10;102786.97;5028246;28;20041;-69
2021/03/17 09:16:35;;;;;;;1.85;0.25;;;6.50;99.90;;;6.23;94.54;102787.31;5030919;28;20484;-67
2021/03/17 09:19:13;;;;;;;1.85;0.50;;;6.40;99.90;;;6.42;93.67;102788.44;5026961;28;20117;-67
2021/03/17 09:21:45;;;;;;;2.50;0.65;;;6.50;99.90;;;6.24;93.93;102789.91;5028108;28;20179;-68
2021/03/17 09:24:31;;;;;;;2.80;0.63;;;6.50;99.90;;;6.42;92.68;102787.56;5026336;28;20048;-66
2021/03/17 09:27:06;;;;;;;2.17;0.50;;;6.60;99.90;;;6.30;94.45;102793.97;5042665;28;20455;-66
2021/03/17 09:29:35;;;;;;;2.65;0.75;;;6.50;99.90;;;6.09;93.85;102781.22;5026293;28;20061;-63
2021/03/17 09:32:05;;;;;;;2.85;1.23;;;6.50;99.90;;;6.18;94.19;102791.28;5031505;28;20029;-64
2021/03/17 09:34:34;;;;;;;3.05;1.00;;;6.50;99.90;;;6.64;90.92;102787.50;5029676;28;20191;-64
2021/03/17 09:37:09;;;;;;;0.43;0.40;;;6.70;99.90;;;8.02;87.94;102782.78;5034881;28;20128;-68
2021/03/17 09:39:37;;;;;;;5.38;0.55;;;7.30;99.90;;;9.14;79.27;102777.09;5011503;28;20037;-67
2021/03/17 09:42:04;;;;;;;1.83;0.70;;;8.30;99.90;;;9.84;75.74;102765.78;5029155;28;20041;-62
2021/03/17 09:44:30;;;;;;;2.67;0.70;;;9.10;99.90;;;10.32;72.64;102763.88;5010936;28;20124;-63
2021/03/17 09:46:56;;;;;;;6.88;0.90;;;9.70;99.90;;;9.80;71.84;102769.81;5015418;28;20037;-63
2021/03/17 09:49:25;;;;;;;3.83;0.85;;;9.90;99.90;;;9.26;73.33;102761.47;5010426;28;20063;-65
2021/03/17 09:51:53;;;;;;;7.00;0.70;;;9.70;99.90;;;9.26;75.27;102773.19;5013925;28;20041;-64
2021/03/17 09:54:22;;;;;;;4.25;0.80;;;9.60;99.90;;;9.06;76.23;102764.19;5032656;28;20395;-63
2021/03/17 09:57:00;;;;;;;5.03;1.08;;;9.50;99.90;;;8.93;76.82;102774.47;5049280;28;20458;-64
2021/03/17 09:59:38;;;;;;;8.10;1.17;;;9.30;99.90;;;8.57;77.01;102761.59;5046023;28;20075;-63
2021/03/17 10:02:21;;;;;;;4.28;1.10;;;9.10;99.90;;;8.35;78.23;102752.66;5027341;28;20038;-64
2021/03/17 10:04:53;;;;;;;2.40;0.73;;;8.90;99.90;;;8.88;76.72;102755.06;5039168;28;20038;-66
2021/03/17 10:07:32;;;;;;;4.95;0.60;;;9.00;99.90;;;8.57;75.59;102753.47;5044314;28;20042;-67
2021/03/17 10:09:59;;;;;;;7.20;0.55;;;9.00;99.90;;;8.65;77.34;102759.03;5025299;28;20055;-64
2021/03/17 10:12:31;;;;;;;2.75;0.43;;;9.00;99.90;;;8.49;75.57;102759.56;5024317;28;20046;-63
2021/03/17 10:15:07;;;;;;;2.20;0.73;;;8.90;99.90;;;8.67;75.54;102759.75;5010038;28;20030;-62
2021/03/17 10:17:35;;;;;;;5.80;1.38;;;8.80;99.90;;;8.75;75.77;102765.34;5041125;28;20106;-62
2021/03/17 10:20:12;;;;;;;1.38;0.63;;;8.90;99.90;;;8.43;77.58;102762.00;5025591;28;20034;-63
2021/03/17 10:22:39;;;;;;;4.30;0.60;;;8.80;99.90;;;8.94;75.75;102756.34;5034087;28;20124;-62
2021/03/17 10:25:12;;;;;;;4.60;1.00;;;9.00;99.90;;;9.35;74.80;102760.63;5026684;28;20052;-62
2021/03/17 10:27:49;;;;;;;4.60;0.85;;;9.20;99.90;;;9.62;71.78;102760.69;5029597;28;20041;-62
2021/03/17 10:30:32;;;;;;;2.85;0.90;;;9.50;99.90;;;9.84;70.71;102757.63;5022233;28;20033;-64
2021/03/17 10:33:01;;;;;;;9.23;1.10;;;9.80;99.90;;;9.64;71.95;102758.69;5029478;28;20396;-66
2021/03/17 10:35:30;;;;;;;8.07;0.80;;;9.80;99.90;;;8.96;73.61;102757.06;5031510;28;20052;-66
2021/03/17 10:37:59;;;;;;;2.53;0.70;;;9.60;99.90;;;8.97;73.72;102754.19;5029819;28;20041;-63
2021/03/17 10:40:27;;;;;;;3.05;0.80;;;9.50;99.90;;;9.33;70.90;102755.31;5046608;28;20041;-65
2021/03/17 10:43:05;;;;;;;4.10;0.95;;;9.60;99.90;;;9.42;71.95;102759.88;5025193;28;20140;-67
2021/03/17 10:45:42;;;;;;;5.80;0.95;;;9.70;99.90;;;9.73;71.11;102756.94;5016166;28;20048;-66